Time;durP1;ratioP1;P1;durP2;ratioP2;P2;SDS_P1;SDS_P2;PMS_P1;PMS_P2;Temp;Humidity;BMP_temperature;BMP_pressure;BME280_temperature;BME280_humidity;BME280_pressure;Samples;Min_cycle;Max_cycle;Signal;HPM_P1;HPM_P2
2023/03/17 00:00:23;;;;;;;6.47;3.23;;;6.50;98.20;;;;;;4993996;28;20446;-60
2023/03/17 00:02:51;;;;;;;4.90;3.23;;;6.50;98.40;;;;;;4998853;28;20450;-59
2023/03/17 00:05:23;;;;;;;3.30;2.10;;;6.40;98.50;;;;;;4998446;28;20482;-59
2023/03/17 00:07:51;;;;;;;6.50;3.83;;;6.40;99.00;;;;;;4996832;28;20467;-60
2023/03/17 00:10:21;;;;;;;6.23;2.70;;;6.40;99.30;;;;;;4998279;28;20489;-60
2023/03/17 00:12:49;;;;;;;6.57;2.73;;;6.40;99.60;;;;;;4998137;28;20442;-61
2023/03/17 00:15:17;;;;;;;4.17;2.63;;;6.30;99.90;;;;;;4998061;28;20491;-60
2023/03/17 00:17:46;;;;;;;7.40;2.90;;;6.30;99.90;;;;;;4994047;28;20450;-60
2023/03/17 00:20:31;;;;;;;2.83;2.43;;;6.30;99.90;;;;;;4998312;28;20475;-59
2023/03/17 00:23:01;;;;;;;5.63;3.10;;;6.20;99.90;;;;;;4996874;28;20443;-56
2023/03/17 00:25:31;;;;;;;2.10;1.90;;;6.20;99.90;;;;;;4997707;28;20481;-56
2023/03/17 00:28:00;;;;;;;7.13;3.10;;;6.20;99.90;;;;;;4993462;28;20499;-60
2023/03/17 00:30:28;;;;;;;7.27;3.30;;;6.20;99.90;;;;;;4998217;28;20477;-58
2023/03/17 00:32:57;;;;;;;2.97;2.50;;;6.20;99.90;;;;;;4987188;28;20419;-60
2023/03/17 00:35:27;;;;;;;6.60;2.77;;;6.20;99.90;;;;;;4998179;28;20522;-59
2023/03/17 00:37:58;;;;;;;5.47;3.10;;;6.20;99.90;;;;;;4996610;28;20435;-56
2023/03/17 00:40:28;;;;;;;5.67;3.37;;;6.20;99.90;;;;;;4998297;28;20471;-57
2023/03/17 00:42:55;;;;;;;4.80;2.70;;;6.20;99.90;;;;;;4998315;28;20474;-59
2023/03/17 00:45:26;;;;;;;4.93;2.43;;;6.20;99.90;;;;;;4997589;28;20462;-57
2023/03/17 00:47:55;;;;;;;7.00;2.60;;;6.10;99.90;;;;;;4996954;28;21010;-61
2023/03/17 00:50:25;;;;;;;10.60;3.23;;;6.10;99.90;;;;;;4997446;28;20447;-56
2023/03/17 00:52:54;;;;;;;5.73;2.90;;;6.10;99.90;;;;;;4993652;28;20430;-59
2023/03/17 00:55:25;;;;;;;6.90;3.27;;;6.00;99.90;;;;;;4997636;28;20455;-59
2023/03/17 00:57:52;;;;;;;5.20;2.70;;;6.00;99.90;;;;;;4992054;28;20482;-60
2023/03/17 01:00:23;;;;;;;5.37;2.53;;;6.10;99.90;;;;;;4996961;28;20503;-52
2023/03/17 01:02:51;;;;;;;4.10;2.87;;;6.10;99.90;;;;;;4997702;28;20431;-54
2023/03/17 01:05:18;;;;;;;3.83;2.60;;;6.10;99.90;;;;;;4997408;28;20450;-55
2023/03/17 01:07:51;;;;;;;6.67;3.10;;;6.10;99.90;;;;;;4998031;28;20502;-59
2023/03/17 01:10:21;;;;;;;7.33;3.70;;;6.20;99.90;;;;;;4998284;28;20431;-61
2023/03/17 01:12:50;;;;;;;4.20;3.47;;;6.20;99.90;;;;;;4992328;28;20427;-58
2023/03/17 01:15:20;;;;;;;4.57;2.87;;;6.10;99.90;;;;;;4997831;28;20475;-53
2023/03/17 01:17:49;;;;;;;6.07;2.93;;;6.20;99.90;;;;;;4997827;28;20458;-61
2023/03/17 01:20:21;;;;;;;6.03;2.80;;;6.10;99.90;;;;;;4998185;28;20437;-52
2023/03/17 01:22:49;;;;;;;4.87;3.43;;;6.10;99.90;;;;;;4992632;28;20526;-61
2023/03/17 01:25:16;;;;;;;5.40;2.87;;;6.00;99.90;;;;;;4991678;28;20474;-62
2023/03/17 01:27:44;;;;;;;8.90;4.00;;;6.00;99.90;;;;;;4997920;28;20545;-59
2023/03/17 01:30:24;;;;;;;7.27;2.77;;;6.00;99.90;;;;;;4998136;28;20542;-54
2023/03/17 01:32:54;;;;;;;8.33;3.17;;;6.00;99.90;;;;;;4997308;28;20478;-60
2023/03/17 01:35:23;;;;;;;5.70;3.40;;;6.00;99.90;;;;;;4997709;28;20478;-58
2023/03/17 01:37:51;;;;;;;5.53;3.27;;;6.00;99.90;;;;;;4997420;28;20459;-59
2023/03/17 01:40:22;;;;;;;10.33;4.07;;;6.00;99.90;;;;;;4992729;28;20467;-58
2023/03/17 01:42:53;;;;;;;8.10;3.60;;;6.00;99.90;;;;;;4993657;28;20481;-62
2023/03/17 01:45:53;;;;;;;3.40;2.73;;;6.00;99.90;;;;;;4993238;28;20435;-60
2023/03/17 01:48:22;;;;;;;8.77;4.83;;;5.90;99.90;;;;;;4965784;28;20486;-59
2023/03/17 01:50:52;;;;;;;5.30;3.20;;;5.90;99.90;;;;;;4994641;28;20467;-59
2023/03/17 01:53:20;;;;;;;6.80;3.10;;;6.00;99.90;;;;;;4996950;28;20467;-60
2023/03/17 01:55:51;;;;;;;6.50;3.67;;;6.00;99.90;;;;;;4996441;28;20947;-63
2023/03/17 01:58:21;;;;;;;7.33;3.00;;;6.00;99.90;;;;;;5000241;28;20468;-59
2023/03/17 02:00:49;;;;;;;5.93;3.60;;;6.00;99.90;;;;;;5000225;28;20527;-58
2023/03/17 02:03:16;;;;;;;6.10;3.27;;;6.00;99.90;;;;;;5000806;28;20470;-57
2023/03/17 02:05:51;;;;;;;4.83;2.90;;;5.90;99.90;;;;;;4993873;28;20431;-60
2023/03/17 02:08:19;;;;;;;5.93;3.67;;;5.90;99.90;;;;;;4999936;28;20494;-57
2023/03/17 02:10:49;;;;;;;5.43;3.07;;;5.90;99.90;;;;;;4999820;28;20411;-59
2023/03/17 02:13:16;;;;;;;12.20;4.30;;;5.90;99.90;;;;;;5000029;28;20456;-60
2023/03/17 02:15:47;;;;;;;4.17;2.93;;;5.90;99.90;;;;;;5000219;28;20494;-58
2023/03/17 02:18:16;;;;;;;7.30;4.23;;;5.90;99.90;;;;;;5000006;28;20491;-60
2023/03/17 02:21:28;;;;;;;6.10;3.10;;;5.90;99.90;;;;;;4999562;28;20430;-59
2023/03/17 02:23:56;;;;;;;5.90;4.33;;;5.80;99.90;;;;;;4992891;28;20751;-61
2023/03/17 02:26:24;;;;;;;5.20;3.43;;;5.90;99.90;;;;;;4993128;28;20427;-60
2023/03/17 02:28:52;;;;;;;4.53;3.30;;;5.80;99.90;;;;;;5000168;28;20488;-56
2023/03/17 02:31:20;;;;;;;9.43;3.80;;;5.80;99.90;;;;;;5000339;28;20437;-60
2023/03/17 02:33:52;;;;;;;6.40;3.43;;;5.80;99.90;;;;;;5000046;28;20447;-60
2023/03/17 02:36:20;;;;;;;5.60;4.10;;;5.80;99.90;;;;;;4999939;28;20432;-60
2023/03/17 02:38:49;;;;;;;6.63;4.07;;;5.80;99.90;;;;;;5000109;28;20514;-58
2023/03/17 02:41:16;;;;;;;6.77;3.70;;;5.80;99.90;;;;;;4999794;28;20458;-57
2023/03/17 02:43:43;;;;;;;4.63;3.97;;;5.80;99.90;;;;;;4999441;28;20447;-58
2023/03/17 02:46:13;;;;;;;8.90;3.43;;;5.80;99.90;;;;;;4999782;28;20466;-56
2023/03/17 02:48:41;;;;;;;10.50;3.93;;;5.80;99.90;;;;;;4999781;28;20505;-60
2023/03/17 02:51:08;;;;;;;10.80;4.27;;;5.80;99.90;;;;;;4999839;28;20481;-60
2023/03/17 02:53:35;;;;;;;8.27;4.63;;;5.80;99.90;;;;;;4992429;28;20470;-58
2023/03/17 02:56:04;;;;;;;4.87;3.20;;;5.80;99.90;;;;;;4999953;28;20463;-60
2023/03/17 02:58:32;;;;;;;6.93;3.23;;;5.80;99.90;;;;;;4999944;28;20434;-61
2023/03/17 03:01:02;;;;;;;8.87;4.00;;;5.80;99.90;;;;;;4999775;28;20491;-62
2023/03/17 03:03:29;;;;;;;4.07;2.57;;;5.70;99.90;;;;;;4999932;28;20475;-60
2023/03/17 03:05:58;;;;;;;5.23;3.93;;;5.70;99.90;;;;;;4999803;28;20467;-57
2023/03/17 03:08:30;;;;;;;7.40;3.87;;;5.70;99.90;;;;;;4998539;28;20551;-59
2023/03/17 03:10:59;;;;;;;11.07;3.50;;;5.70;99.90;;;;;;4998800;28;20549;-59
2023/03/17 03:13:27;;;;;;;7.20;3.50;;;5.70;99.90;;;;;;4999701;28;20455;-54
2023/03/17 03:15:55;;;;;;;6.60;3.47;;;5.70;99.90;;;;;;4993520;28;20463;-58
2023/03/17 03:18:22;;;;;;;5.83;3.83;;;5.80;99.90;;;;;;4998900;28;20450;-58
2023/03/17 03:20:55;;;;;;;5.33;3.90;;;5.80;99.90;;;;;;4998018;28;20470;-55
2023/03/17 03:23:22;;;;;;;10.20;4.27;;;5.70;99.90;;;;;;4999015;28;20497;-59
2023/03/17 03:25:49;;;;;;;10.57;3.90;;;5.80;99.90;;;;;;4991878;28;20451;-60
2023/03/17 03:28:16;;;;;;;5.20;3.30;;;5.80;99.90;;;;;;4999340;28;20474;-57
2023/03/17 03:30:45;;;;;;;5.67;3.60;;;5.80;99.90;;;;;;4999359;28;20484;-61
2023/03/17 03:33:14;;;;;;;6.53;4.17;;;5.80;99.90;;;;;;4998997;28;20454;-59
2023/03/17 03:35:43;;;;;;;7.00;3.63;;;5.80;99.90;;;;;;4998926;28;20450;-59
2023/03/17 03:38:11;;;;;;;9.10;3.73;;;5.70;99.90;;;;;;4998916;28;20435;-60
2023/03/17 03:40:38;;;;;;;12.20;4.20;;;5.70;99.90;;;;;;4998089;28;20479;-60
2023/03/17 03:43:14;;;;;;;5.40;3.40;;;5.70;99.90;;;;;;4997507;28;20467;-60
2023/03/17 03:45:41;;;;;;;7.10;3.17;;;5.70;99.90;;;;;;4998794;28;20510;-57
2023/03/17 03:48:10;;;;;;;4.70;2.70;;;5.70;99.90;;;;;;4998495;28;20526;-61
2023/03/17 03:50:45;;;;;;;5.70;3.40;;;5.70;99.90;;;;;;4998236;28;20514;-56
2023/03/17 03:53:12;;;;;;;4.67;2.50;;;5.70;99.90;;;;;;4992791;28;20481;-54
2023/03/17 03:55:40;;;;;;;5.20;2.70;;;5.70;99.90;;;;;;4994489;28;20945;-59
2023/03/17 03:58:10;;;;;;;4.43;2.97;;;5.70;99.90;;;;;;4998792;28;20498;-57
2023/03/17 04:00:37;;;;;;;3.63;2.70;;;5.70;99.90;;;;;;4998223;28;20430;-61
2023/03/17 04:03:04;;;;;;;7.07;3.40;;;5.70;99.90;;;;;;4997916;28;20443;-58
2023/03/17 04:05:32;;;;;;;7.83;3.30;;;5.70;99.90;;;;;;4998290;28;20416;-59
2023/03/17 04:07:59;;;;;;;7.37;3.67;;;5.70;99.90;;;;;;4998691;28;20511;-63
2023/03/17 04:10:26;;;;;;;7.00;3.50;;;5.70;99.90;;;;;;4998557;28;20512;-65
2023/03/17 04:12:54;;;;;;;7.20;3.67;;;5.70;99.90;;;;;;4995602;28;20903;-59
2023/03/17 04:15:24;;;;;;;8.00;3.10;;;5.70;99.90;;;;;;4992322;28;20482;-60
2023/03/17 04:17:50;;;;;;;8.50;3.97;;;5.80;99.90;;;;;;4994156;28;20453;-60
2023/03/17 04:20:18;;;;;;;5.30;2.93;;;5.80;99.90;;;;;;4993546;28;20471;-63
2023/03/17 04:22:46;;;;;;;8.83;4.00;;;5.80;99.90;;;;;;4997844;28;20415;-60
2023/03/17 04:25:15;;;;;;;6.43;3.23;;;5.80;99.90;;;;;;4998125;28;20447;-56
2023/03/17 04:27:45;;;;;;;5.30;3.00;;;5.70;99.90;;;;;;4998001;28;20541;-59
2023/03/17 04:30:13;;;;;;;14.80;4.93;;;5.60;99.90;;;;;;4997816;28;20423;-63
2023/03/17 04:32:40;;;;;;;5.77;3.77;;;5.60;99.90;;;;;;4998741;28;20474;-64
2023/03/17 04:35:09;;;;;;;5.47;3.67;;;5.60;99.90;;;;;;4998524;28;20451;-63
2023/03/17 04:37:37;;;;;;;8.97;4.03;;;5.60;99.90;;;;;;4986877;28;20571;-61
2023/03/17 04:40:08;;;;;;;9.43;3.13;;;5.60;99.90;;;;;;4986431;28;20442;-61
2023/03/17 04:42:36;;;;;;;5.57;3.83;;;5.60;99.90;;;;;;4998052;28;20415;-59
2023/03/17 04:45:06;;;;;;;4.13;2.83;;;5.60;99.90;;;;;;4997362;28;20435;-58
2023/03/17 04:47:33;;;;;;;5.40;2.60;;;5.60;99.90;;;;;;4997184;28;20548;-60
2023/03/17 04:50:00;;;;;;;7.20;4.80;;;5.60;99.90;;;;;;4997625;28;20479;-56
2023/03/17 04:52:29;;;;;;;10.30;3.20;;;5.60;99.90;;;;;;4996966;28;20435;-59
2023/03/17 04:54:57;;;;;;;5.47;3.30;;;5.60;99.90;;;;;;4996397;28;20463;-60
2023/03/17 04:57:25;;;;;;;5.17;2.63;;;5.60;99.90;;;;;;4988290;28;20430;-60
2023/03/17 04:59:56;;;;;;;3.13;2.47;;;5.60;99.90;;;;;;4998168;28;20479;-63
2023/03/17 05:02:23;;;;;;;5.97;3.43;;;5.60;99.90;;;;;;4995381;28;20526;-61
2023/03/17 05:04:50;;;;;;;6.40;2.90;;;5.50;99.90;;;;;;4998114;28;20438;-61
2023/03/17 05:07:17;;;;;;;7.83;3.47;;;5.50;99.90;;;;;;4997843;28;20459;-57
2023/03/17 05:09:45;;;;;;;4.70;4.20;;;5.50;99.90;;;;;;4995634;28;20446;-61
2023/03/17 05:12:16;;;;;;;6.83;2.60;;;5.50;99.90;;;;;;4997768;28;20466;-61
2023/03/17 05:14:46;;;;;;;5.27;2.83;;;5.50;99.90;;;;;;4991446;28;20455;-61
2023/03/17 05:17:20;;;;;;;7.33;4.47;;;5.60;99.90;;;;;;5030501;23;20495;-55
2023/03/17 05:19:47;;;;;;;5.87;3.00;;;5.60;99.90;;;;;;5042798;28;20481;-60
2023/03/17 05:22:14;;;;;;;4.80;2.90;;;5.60;99.90;;;;;;5050164;28;20436;-61
2023/03/17 05:24:41;;;;;;;5.73;3.10;;;5.60;99.90;;;;;;5046612;28;20452;-62
2023/03/17 05:27:08;;;;;;;6.83;2.70;;;5.60;99.90;;;;;;5046156;28;20486;-61
2023/03/17 05:29:35;;;;;;;8.00;2.80;;;5.60;99.90;;;;;;5048586;28;20530;-59
2023/03/17 05:32:03;;;;;;;3.17;2.80;;;5.60;99.90;;;;;;5056499;28;20437;-59
2023/03/17 05:34:31;;;;;;;8.97;3.43;;;5.70;99.90;;;;;;5053605;28;20881;-61
2023/03/17 05:36:57;;;;;;;4.47;2.73;;;5.70;99.90;;;;;;5057549;28;20448;-61
2023/03/17 05:39:24;;;;;;;4.00;2.60;;;5.70;99.90;;;;;;5055097;28;20475;-61
2023/03/17 05:41:52;;;;;;;10.60;3.73;;;5.70;99.90;;;;;;5059172;28;20416;-60
2023/03/17 05:44:19;;;;;;;3.87;3.03;;;5.70;99.90;;;;;;5058844;28;20487;-61
2023/03/17 05:46:46;;;;;;;4.53;2.63;;;5.70;99.90;;;;;;5058785;28;20436;-58
2023/03/17 05:49:14;;;;;;;6.10;3.00;;;5.80;99.90;;;;;;5057390;28;20491;-60
2023/03/17 05:51:41;;;;;;;5.43;3.27;;;5.80;99.90;;;;;;5058258;28;20471;-61
2023/03/17 05:54:08;;;;;;;4.23;2.97;;;5.80;99.90;;;;;;5056814;28;20452;-59
2023/03/17 05:56:35;;;;;;;5.63;2.70;;;5.80;99.90;;;;;;5055851;28;20472;-59
2023/03/17 05:59:02;;;;;;;3.70;2.60;;;5.80;99.90;;;;;;5044516;28;20840;-60
2023/03/17 06:01:31;;;;;;;6.60;3.43;;;5.90;99.90;;;;;;5039110;28;20538;-61
2023/03/17 06:03:59;;;;;;;7.20;2.93;;;5.90;99.90;;;;;;5044124;28;20507;-60
2023/03/17 06:06:28;;;;;;;5.60;3.53;;;5.90;99.90;;;;;;5046202;28;20486;-61
2023/03/17 06:08:55;;;;;;;4.13;2.80;;;5.90;99.90;;;;;;5058021;28;20487;-61
2023/03/17 06:11:22;;;;;;;5.47;3.80;;;5.90;99.90;;;;;;5052044;28;20534;-57
2023/03/17 06:13:51;;;;;;;6.10;2.90;;;5.90;99.90;;;;;;5056586;28;20463;-59
2023/03/17 06:16:18;;;;;;;3.67;2.70;;;6.00;99.90;;;;;;5057122;28;20494;-61
2023/03/17 06:18:45;;;;;;;4.80;3.13;;;5.90;99.90;;;;;;5055085;28;20595;-61
2023/03/17 06:21:12;;;;;;;6.47;3.17;;;5.90;99.90;;;;;;5054553;28;20452;-61
2023/03/17 06:23:41;;;;;;;4.63;3.27;;;6.00;99.90;;;;;;5052930;28;20467;-61
2023/03/17 06:26:09;;;;;;;8.70;3.50;;;6.00;99.90;;;;;;5049782;28;20496;-58
2023/03/17 06:28:35;;;;;;;3.90;2.90;;;6.00;99.90;;;;;;5040555;28;20492;-61
2023/03/17 06:31:02;;;;;;;8.67;3.53;;;6.10;99.90;;;;;;5031340;28;20542;-61
2023/03/17 06:33:29;;;;;;;7.60;2.83;;;6.10;99.90;;;;;;5022962;28;20535;-58
2023/03/17 06:35:57;;;;;;;10.10;3.80;;;6.10;99.90;;;;;;5054924;28;20803;-61
2023/03/17 06:38:27;;;;;;;4.23;2.83;;;6.10;99.90;;;;;;5056838;28;20512;-59
2023/03/17 06:40:56;;;;;;;5.00;2.77;;;6.10;99.90;;;;;;5037952;28;20509;-59
2023/03/17 06:43:23;;;;;;;5.70;3.17;;;6.10;99.90;;;;;;5036640;28;20453;-61
2023/03/17 06:45:51;;;;;;;7.13;3.27;;;6.20;99.90;;;;;;5037804;28;20501;-59
2023/03/17 06:48:18;;;;;;;7.90;3.30;;;6.30;99.90;;;;;;5022597;28;20495;-62
2023/03/17 06:50:46;;;;;;;6.60;3.30;;;6.40;99.90;;;;;;5021829;28;20556;-61
2023/03/17 06:53:13;;;;;;;4.70;3.93;;;6.40;99.90;;;;;;5031806;28;20457;-57
2023/03/17 06:55:40;;;;;;;9.70;3.20;;;6.40;99.90;;;;;;5037172;28;20445;-60
2023/03/17 06:58:09;;;;;;;5.67;3.00;;;6.40;99.90;;;;;;5039812;28;20487;-58
2023/03/17 07:00:37;;;;;;;9.17;3.80;;;6.40;99.90;;;;;;5053869;28;20436;-61
2023/03/17 07:03:04;;;;;;;4.47;3.00;;;6.50;99.90;;;;;;5057536;28;20445;-60
2023/03/17 07:05:31;;;;;;;4.70;2.90;;;6.60;99.90;;;;;;5051041;28;20532;-57
2023/03/17 07:07:59;;;;;;;5.10;2.53;;;6.50;99.90;;;;;;5050240;28;20475;-62
2023/03/17 07:10:26;;;;;;;7.20;3.83;;;6.50;99.90;;;;;;5053828;28;20500;-59
2023/03/17 07:12:52;;;;;;;11.50;3.43;;;6.60;99.90;;;;;;5050845;28;20457;-61
2023/03/17 07:15:21;;;;;;;9.40;4.30;;;6.70;99.90;;;;;;5041479;28;20925;-60
2023/03/17 07:17:47;;;;;;;5.60;3.10;;;6.70;99.90;;;;;;5041799;28;20558;-60
2023/03/17 07:20:14;;;;;;;4.80;2.80;;;6.70;99.90;;;;;;5043781;28;20447;-61
2023/03/17 07:22:42;;;;;;;4.90;3.73;;;6.60;99.90;;;;;;5052205;28;20471;-61
2023/03/17 07:25:09;;;;;;;6.33;3.10;;;6.70;99.90;;;;;;5055942;28;20467;-60
2023/03/17 07:27:36;;;;;;;7.33;3.13;;;6.80;99.70;;;;;;5055239;28;20480;-61
2023/03/17 07:30:04;;;;;;;6.13;3.30;;;6.80;99.10;;;;;;5046131;28;20479;-60
2023/03/17 07:32:34;;;;;;;5.97;2.53;;;6.90;99.10;;;;;;5045272;28;20499;-61
2023/03/17 07:35:00;;;;;;;7.70;3.23;;;6.90;98.80;;;;;;5049166;28;20429;-60
2023/03/17 07:37:29;;;;;;;6.10;3.00;;;7.00;98.60;;;;;;5054541;28;20493;-60
2023/03/17 07:39:58;;;;;;;6.23;2.40;;;7.20;98.60;;;;;;5040734;28;20555;-61
2023/03/17 07:42:27;;;;;;;9.57;3.80;;;7.30;97.80;;;;;;5027766;28;20476;-59
2023/03/17 07:44:54;;;;;;;4.97;3.27;;;7.40;97.10;;;;;;5020376;28;20500;-62
2023/03/17 07:47:21;;;;;;;6.97;4.20;;;7.50;96.50;;;;;;5034519;28;20449;-61
2023/03/17 07:49:50;;;;;;;7.60;4.00;;;7.60;95.90;;;;;;5043555;28;20567;-61
2023/03/17 07:52:16;;;;;;;6.60;3.63;;;7.50;95.80;;;;;;5030478;28;20473;-61
2023/03/17 07:54:43;;;;;;;6.73;4.10;;;7.60;95.40;;;;;;5028422;28;20517;-59
2023/03/17 07:57:11;;;;;;;7.00;4.03;;;7.50;95.50;;;;;;5039670;28;20590;-60
2023/03/17 07:59:38;;;;;;;6.87;3.43;;;7.50;95.00;;;;;;5039747;28;20503;-60
2023/03/17 08:02:07;;;;;;;5.83;4.30;;;7.60;95.50;;;;;;5047150;28;20464;-60
2023/03/17 08:04:34;;;;;;;9.73;4.50;;;7.70;94.90;;;;;;5055896;28;20479;-59
2023/03/17 08:07:05;;;;;;;6.73;4.13;;;7.70;94.10;;;;;;5053193;28;20452;-60
2023/03/17 08:09:33;;;;;;;7.20;4.40;;;7.80;95.00;;;;;;5054255;28;20464;-62
2023/03/17 08:12:00;;;;;;;9.10;4.20;;;7.90;94.70;;;;;;5036196;28;20467;-58
2023/03/17 08:14:27;;;;;;;6.17;3.50;;;8.20;94.90;;;;;;5044734;28;20496;-48
2023/03/17 08:16:54;;;;;;;7.90;3.43;;;8.50;93.20;;;;;;5055345;28;20439;-61
2023/03/17 08:19:21;;;;;;;14.85;7.20;;;8.80;91.80;;;;;;5054018;28;20470;-63
2023/03/17 08:21:49;;;;;;;16.63;4.80;;;9.00;91.10;;;;;;5055045;28;20468;-62
2023/03/17 08:24:17;;;;;;;4.77;3.30;;;9.30;89.80;;;;;;5054173;28;20479;-63
2023/03/17 08:26:48;;;;;;;6.90;3.40;;;9.40;87.20;;;;;;5055941;28;20441;-61
2023/03/17 08:29:15;;;;;;;4.57;3.50;;;9.40;85.70;;;;;;5046572;28;20549;-65
2023/03/17 08:31:42;;;;;;;7.47;3.80;;;9.40;85.10;;;;;;5047418;28;20445;-63
2023/03/17 08:34:09;;;;;;;5.83;3.80;;;9.30;86.60;;;;;;5054338;28;20467;-64
2023/03/17 08:36:36;;;;;;;7.80;3.40;;;9.30;85.90;;;;;;5050327;28;20473;-60
2023/03/17 08:39:04;;;;;;;7.23;3.67;;;9.30;85.50;;;;;;5054629;28;20452;-62
2023/03/17 08:41:33;;;;;;;5.17;3.57;;;9.40;85.70;;;;;;5050383;28;20583;-61
2023/03/17 08:44:02;;;;;;;5.40;4.13;;;9.60;84.90;;;;;;5048299;28;20578;-62
2023/03/17 08:46:30;;;;;;;7.30;3.60;;;9.80;83.70;;;;;;5044603;28;20475;-52
2023/03/17 08:48:59;;;;;;;6.73;2.87;;;9.80;82.40;;;;;;5039301;28;20473;-62
2023/03/17 08:51:30;;;;;;;4.37;2.70;;;9.70;82.00;;;;;;5044653;28;20495;-62
2023/03/17 08:53:57;;;;;;;6.53;3.37;;;9.70;82.60;;;;;;5047244;28;20472;-54
2023/03/17 08:56:24;;;;;;;5.30;3.20;;;9.80;83.00;;;;;;5040588;28;20486;-59
2023/03/17 08:58:53;;;;;;;6.50;3.63;;;9.60;84.00;;;;;;5039265;28;20509;-67
2023/03/17 09:01:21;;;;;;;8.30;4.27;;;9.60;84.00;;;;;;5034929;28;20445;-62
2023/03/17 09:03:49;;;;;;;4.00;3.43;;;9.50;84.40;;;;;;5035373;28;20475;-66
2023/03/17 09:06:16;;;;;;;8.07;3.97;;;9.50;85.40;;;;;;5035363;28;20441;-59
2023/03/17 09:08:46;;;;;;;3.63;2.53;;;9.50;86.20;;;;;;5035016;28;20445;-64
2023/03/17 09:11:16;;;;;;;7.37;3.40;;;9.50;85.20;;;;;;5036042;28;20436;-67
2023/03/17 09:13:45;;;;;;;4.50;3.07;;;9.60;85.60;;;;;;5035632;28;20414;-67
2023/03/17 09:16:14;;;;;;;7.47;3.50;;;9.50;84.60;;;;;;5035276;28;20467;-62
2023/03/17 09:18:42;;;;;;;5.13;3.57;;;9.60;84.30;;;;;;5035179;28;20472;-61
2023/03/17 09:21:11;;;;;;;11.87;4.10;;;9.70;84.10;;;;;;5033671;28;20464;-61
2023/03/17 09:23:38;;;;;;;4.00;2.90;;;9.80;84.30;;;;;;5031609;28;20475;-62
2023/03/17 09:26:05;;;;;;;5.20;4.70;;;9.90;83.50;;;;;;5053518;28;20468;-61
2023/03/17 09:28:33;;;;;;;6.00;3.10;;;10.00;82.10;;;;;;5054337;28;20448;-60
2023/03/17 09:31:04;;;;;;;9.27;3.50;;;10.30;81.70;;;;;;5053189;28;20491;-63
2023/03/17 09:33:32;;;;;;;7.37;2.80;;;10.60;81.00;;;;;;5053215;28;20522;-62
2023/03/17 09:35:59;;;;;;;7.30;3.13;;;11.00;79.60;;;;;;5053216;28;20437;-59
2023/03/17 09:38:27;;;;;;;6.27;3.33;;;11.30;76.30;;;;;;5053557;28;20523;-62
2023/03/17 09:41:00;;;;;;;7.07;3.43;;;11.60;74.30;;;;;;5045863;28;20539;-61
2023/03/17 09:43:37;;;;;;;6.30;3.70;;;11.80;73.00;;;;;;5040977;28;20496;-63
2023/03/17 09:46:16;;;;;;;10.80;3.93;;;12.00;72.60;;;;;;5024534;28;20441;-66
2023/03/17 09:48:54;;;;;;;4.17;3.37;;;12.20;71.40;;;;;;5031512;28;20468;-63
2023/03/17 09:51:21;;;;;;;5.43;3.97;;;12.60;70.20;;;;;;5034570;28;20460;-61
2023/03/17 09:53:54;;;;;;;4.80;3.67;;;13.50;67.90;;;;;;5051938;28;20456;-66
2023/03/17 09:56:23;;;;;;;6.60;4.40;;;14.80;62.50;;;;;;5047604;28;20435;-66
2023/03/17 09:58:53;;;;;;;6.33;3.97;;;15.90;60.50;;;;;;5035323;28;20817;-63
2023/03/17 10:01:21;;;;;;;9.70;4.30;;;16.70;56.20;;;;;;5030214;28;20543;-65
2023/03/17 10:03:50;;;;;;;5.63;3.90;;;17.10;53.60;;;;;;5042232;28;20457;-60
2023/03/17 10:06:34;;;;;;;6.10;5.00;;;17.50;51.90;;;;;;5036133;28;20464;-65
2023/03/17 10:09:07;;;;;;;6.77;3.90;;;17.80;51.00;;;;;;5034496;28;20491;-64
2023/03/17 10:11:41;;;;;;;5.00;2.87;;;18.10;49.50;;;;;;5039414;28;20453;-65
2023/03/17 10:14:33;;;;;;;5.97;3.80;;;18.40;49.20;;;;;;5043250;28;20484;-65
2023/03/17 10:17:03;;;;;;;4.70;3.83;;;18.20;48.40;;;;;;5039023;28;20512;-61
2023/03/17 10:19:38;;;;;;;6.27;3.30;;;17.80;47.30;;;;;;5038096;28;20483;-60
2023/03/17 10:22:14;;;;;;;3.37;2.80;;;17.60;47.70;;;;;;5032555;28;20519;-61
2023/03/17 10:24:47;;;;;;;4.80;3.10;;;17.70;47.60;;;;;;5051236;28;20443;-60
2023/03/17 10:27:15;;;;;;;5.80;2.90;;;17.90;47.20;;;;;;5045066;28;20452;-66
2023/03/17 10:29:42;;;;;;;6.37;2.80;;;17.80;46.80;;;;;;5042864;28;20551;-63
2023/03/17 10:32:11;;;;;;;5.30;3.17;;;17.60;46.80;;;;;;5054575;28;20487;-60
2023/03/17 10:34:41;;;;;;;4.40;3.17;;;17.30;47.20;;;;;;5055472;28;20446;-70
2023/03/17 10:37:12;;;;;;;4.80;3.07;;;17.00;47.20;;;;;;5056760;28;20536;-61
2023/03/17 10:39:45;;;;;;;6.93;3.70;;;16.50;47.80;;;;;;5056537;28;20444;-62
2023/03/17 10:42:19;;;;;;;7.37;3.57;;;16.30;48.50;;;;;;5056606;28;20467;-55
2023/03/17 10:44:52;;;;;;;5.83;3.20;;;16.20;48.80;;;;;;5056793;28;20456;-61
2023/03/17 10:47:36;;;;;;;5.63;3.53;;;16.10;49.40;;;;;;5056976;28;20460;-56
2023/03/17 10:50:20;;;;;;;9.30;3.70;;;15.90;49.40;;;;;;5055389;28;20491;-63
2023/03/17 10:52:51;;;;;;;5.40;2.90;;;15.80;49.80;;;;;;5056582;28;20440;-59
2023/03/17 10:55:20;;;;;;;4.93;2.60;;;15.60;49.90;;;;;;5056849;28;20479;-61
2023/03/17 10:57:52;;;;;;;4.23;3.27;;;15.50;50.20;;;;;;5056535;28;20479;-62
2023/03/17 11:00:21;;;;;;;5.83;3.77;;;15.60;50.00;;;;;;5057102;28;20487;-61
2023/03/17 11:02:54;;;;;;;3.60;3.00;;;15.40;50.00;;;;;;5057340;28;20488;-58
2023/03/17 11:05:25;;;;;;;5.00;2.70;;;15.40;50.00;;;;;;5057579;28;20456;-58
2023/03/17 11:08:06;;;;;;;4.40;3.50;;;15.40;50.20;;;;;;5056830;28;20424;-62
2023/03/17 11:10:37;;;;;;;5.47;2.53;;;15.30;50.10;;;;;;5056826;28;20480;-63
2023/03/17 11:13:05;;;;;;;4.33;2.90;;;15.30;50.40;;;;;;5057426;28;20444;-63
2023/03/17 11:15:37;;;;;;;4.67;3.20;;;15.20;50.70;;;;;;5057364;28;20483;-58
2023/03/17 11:18:12;;;;;;;8.60;3.07;;;15.30;51.00;;;;;;5056082;28;20452;-60
2023/03/17 11:20:54;;;;;;;3.80;2.97;;;15.20;50.60;;;;;;5056887;28;20440;-65
2023/03/17 11:23:45;;;;;;;5.13;2.90;;;15.10;50.80;;;;;;5056131;28;20463;-60
2023/03/17 11:26:33;;;;;;;3.47;1.80;;;15.00;51.00;;;;;;5056049;28;20804;-62
2023/03/17 11:29:18;;;;;;;4.13;2.70;;;14.70;51.10;;;;;;5055740;28;20464;-61
2023/03/17 11:31:53;;;;;;;4.67;3.43;;;14.60;51.40;;;;;;5056131;28;20877;-61
2023/03/17 11:34:28;;;;;;;5.80;2.60;;;14.60;51.70;;;;;;5055627;28;20956;-63
2023/03/17 11:37:05;;;;;;;3.97;3.07;;;14.60;51.80;;;;;;5056664;28;20416;-60
2023/03/17 11:39:42;;;;;;;7.83;3.47;;;14.60;51.90;;;;;;5057092;28;20507;-61
2023/03/17 11:42:17;;;;;;;6.93;3.10;;;14.60;52.40;;;;;;5056514;28;20444;-60
2023/03/17 11:45:21;;;;;;;5.30;2.57;;;14.80;52.50;;;;;;5056576;28;20475;-61
2023/03/17 11:48:02;;;;;;;10.93;3.30;;;14.80;53.00;;;;;;5056916;28;20412;-61
2023/03/17 11:50:33;;;;;;;4.80;2.73;;;15.00;52.60;;;;;;5037264;28;20549;-63
2023/03/17 11:53:21;;;;;;;3.70;2.50;;;15.00;52.20;;;;;;5041859;28;20471;-62
2023/03/17 11:55:54;;;;;;;5.83;2.60;;;14.80;52.10;;;;;;5043707;28;20458;-61
2023/03/17 11:58:29;;;;;;;4.60;2.30;;;14.60;52.50;;;;;;5053072;28;20488;-58
2023/03/17 12:00:59;;;;;;;5.03;2.87;;;14.60;52.70;;;;;;5055575;28;20864;-61
2023/03/17 12:03:35;;;;;;;4.50;2.60;;;14.50;52.60;;;;;;5056164;28;20482;-59
2023/03/17 12:06:05;;;;;;;6.20;3.83;;;14.50;53.70;;;;;;5055720;28;20432;-61
2023/03/17 12:08:41;;;;;;;5.80;3.77;;;14.60;53.20;;;;;;5056161;28;20463;-63
2023/03/17 12:11:12;;;;;;;4.90;3.23;;;14.70;53.40;;;;;;5053535;28;20478;-66
2023/03/17 12:13:45;;;;;;;3.57;2.77;;;14.60;53.20;;;;;;5050574;28;20428;-68
2023/03/17 12:16:20;;;;;;;3.23;2.80;;;14.60;53.70;;;;;;5051597;28;20487;-64
2023/03/17 12:18:55;;;;;;;5.47;3.17;;;14.60;53.00;;;;;;5055754;28;20408;-60
2023/03/17 12:21:31;;;;;;;7.73;2.23;;;14.70;52.70;;;;;;5055709;28;20424;-62
2023/03/17 12:24:03;;;;;;;3.87;2.33;;;14.70;53.10;;;;;;5055488;28;20424;-62
2023/03/17 12:26:36;;;;;;;4.10;3.00;;;14.80;53.40;;;;;;5051427;28;20424;-67
2023/03/17 12:29:11;;;;;;;5.60;2.50;;;14.90;53.50;;;;;;5038607;28;20460;-65
2023/03/17 12:31:43;;;;;;;5.50;3.77;;;15.00;54.40;;;;;;5035095;28;20523;-57
2023/03/17 12:34:19;;;;;;;4.90;2.63;;;15.10;53.40;;;;;;5045981;28;20459;-57
2023/03/17 12:36:47;;;;;;;7.73;3.43;;;15.20;53.40;;;;;;5054027;28;20483;-72
2023/03/17 12:39:23;;;;;;;3.57;2.50;;;15.30;53.30;;;;;;5053593;28;20530;-57
2023/03/17 12:42:05;;;;;;;9.93;3.57;;;15.30;53.20;;;;;;5049669;28;20492;-69
2023/03/17 12:44:49;;;;;;;4.90;2.50;;;15.30;54.00;;;;;;5053865;28;20456;-62
2023/03/17 12:47:36;;;;;;;10.70;3.50;;;15.30;53.90;;;;;;5041981;28;20424;-68
2023/03/17 12:50:31;;;;;;;4.07;3.10;;;15.30;53.30;;;;;;5049134;28;20528;-68
2023/03/17 12:53:16;;;;;;;4.53;2.37;;;15.30;53.10;;;;;;5041008;28;20465;-69
2023/03/17 12:55:46;;;;;;;4.50;2.87;;;15.20;53.20;;;;;;5054123;28;20408;-53
2023/03/17 12:58:32;;;;;;;5.13;3.03;;;15.30;53.00;;;;;;5053110;28;20428;-59
2023/03/17 13:01:14;;;;;;;5.03;2.73;;;15.30;53.30;;;;;;5044641;28;20443;-67
2023/03/17 13:03:55;;;;;;;6.40;3.17;;;15.30;52.80;;;;;;5037562;28;20551;-70
2023/03/17 13:06:24;;;;;;;5.40;2.93;;;15.20;52.90;;;;;;5038418;28;20482;-77
2023/03/17 13:08:54;;;;;;;7.80;2.80;;;15.20;53.20;;;;;;5045001;28;20452;-70